Terminal Aerodrome Forecast
Issued by NWS

Home | Current Version | Previous Version | Text Only | Print | Product List | Glossary Off
Versions: 1 2 3 4 5 6 7 8 9 10 11 12 13 14 15 16 17

000
FTUS43 KMPX 211100
TAFAXN
TAF
KAXN 211139Z 2112/2212 12010KT P6SM SKC
     FM211600 14017G24KT P6SM SKC
     FM220000 15012G19KT P6SM SCT250=

USA.gov is the U.S. government's official web portal to all federal, state and local government web resources and services.